Time;durP1;ratioP1;P1;durP2;ratioP2;P2;SDS_P1;SDS_P2;PMS_P1;PMS_P2;Temp;Humidity;BMP_temperature;BMP_pressure;BME280_temperature;BME280_humidity;BME280_pressure;Samples;Min_cycle;Max_cycle;Signal;HPM_P1;HPM_P2
2021/10/15 00:02:15;;;;;;;1.48;1.20;;;13.00;89.10;;;;;;5079703;28;20142;-85
2021/10/15 00:04:41;;;;;;;1.95;1.40;;;13.00;89.10;;;;;;5079351;28;20400;-82
2021/10/15 00:07:07;;;;;;;2.50;1.38;;;13.00;89.10;;;;;;5115711;28;20050;-82
2021/10/15 00:09:32;;;;;;;2.63;1.67;;;13.00;89.10;;;;;;5097889;28;20039;-84
2021/10/15 00:11:58;;;;;;;2.05;1.20;;;13.10;89.10;;;;;;5096872;28;20104;-85
2021/10/15 00:14:24;;;;;;;3.40;1.40;;;13.00;89.00;;;;;;5095884;28;20131;-82
2021/10/15 00:16:50;;;;;;;2.15;1.30;;;13.00;89.10;;;;;;5095083;28;20481;-82
2021/10/15 00:19:16;;;;;;;2.10;1.40;;;12.90;89.00;;;;;;5062076;28;20127;-81
2021/10/15 00:21:41;;;;;;;2.25;1.45;;;12.90;89.10;;;;;;5115073;28;20106;-84
2021/10/15 00:24:07;;;;;;;3.15;1.25;;;13.00;89.10;;;;;;5113317;28;20042;-85
2021/10/15 00:26:33;;;;;;;3.10;1.50;;;13.00;89.00;;;;;;5078887;28;20044;-82
2021/10/15 00:28:59;;;;;;;2.45;1.30;;;12.90;89.00;;;;;;5101088;28;20035;-85
2021/10/15 00:31:25;;;;;;;1.90;1.25;;;12.90;89.00;;;;;;5079148;28;20092;-87
2021/10/15 00:33:51;;;;;;;2.40;1.30;;;12.90;89.00;;;;;;5079910;28;20069;-85
2021/10/15 00:36:17;;;;;;;1.83;1.35;;;12.90;89.00;;;;;;5061863;28;20184;-81
2021/10/15 00:38:42;;;;;;;2.90;1.50;;;12.90;89.00;;;;;;5095698;28;20515;-82
2021/10/15 00:41:08;;;;;;;2.15;1.40;;;12.90;89.00;;;;;;5078195;28;20035;-81
2021/10/15 00:43:34;;;;;;;1.92;1.23;;;12.90;89.00;;;;;;5113745;28;20039;-81
2021/10/15 00:46:00;;;;;;;2.10;1.40;;;12.90;89.10;;;;;;5095123;28;20050;-83
2021/10/15 00:48:25;;;;;;;2.10;1.40;;;12.90;89.00;;;;;;5079165;28;20046;-82
2021/10/15 00:50:51;;;;;;;2.35;1.20;;;12.90;89.00;;;;;;5114822;28;20565;-84
2021/10/15 00:53:17;;;;;;;1.52;1.20;;;12.90;89.10;;;;;;5062786;28;20089;-85
2021/10/15 00:55:44;;;;;;;2.45;1.48;;;12.80;89.00;;;;;;5079378;28;20042;-82
2021/10/15 00:58:10;;;;;;;2.45;1.50;;;12.90;89.70;;;;;;5097187;28;20088;-84
2021/10/15 01:00:36;;;;;;;1.95;1.27;;;12.80;89.00;;;;;;5078334;28;20035;-82
2021/10/15 01:03:04;;;;;;;1.75;1.08;;;12.80;89.00;;;;;;5113315;28;20039;-83
2021/10/15 01:05:30;;;;;;;1.75;1.23;;;12.80;89.00;;;;;;5078040;28;20560;-81
2021/10/15 01:07:56;;;;;;;1.92;1.20;;;12.90;89.10;;;;;;5095218;28;20122;-84
2021/10/15 01:10:23;;;;;;;3.70;1.48;;;12.80;89.10;;;;;;5077997;28;20127;-83
2021/10/15 01:12:50;;;;;;;2.08;1.33;;;12.70;89.10;;;;;;5077971;28;20062;-84
2021/10/15 01:15:15;;;;;;;2.40;1.10;;;12.80;89.20;;;;;;5078135;28;20040;-84
2021/10/15 01:17:42;;;;;;;1.52;1.10;;;12.70;89.10;;;;;;5078335;28;20430;-82
2021/10/15 01:20:08;;;;;;;1.42;1.08;;;12.80;89.20;;;;;;5077697;28;20032;-85
2021/10/15 01:22:34;;;;;;;1.85;1.00;;;12.80;89.20;;;;;;5078286;28;20397;-84
2021/10/15 01:24:59;;;;;;;1.58;1.00;;;12.70;89.20;;;;;;5077939;28;20044;-83
2021/10/15 01:27:26;;;;;;;1.10;1.00;;;12.80;89.30;;;;;;5113722;28;20128;-83
2021/10/15 01:29:52;;;;;;;1.50;1.10;;;12.80;89.30;;;;;;5062067;28;20059;-83
2021/10/15 01:32:20;;;;;;;1.88;0.93;;;12.70;89.30;;;;;;5112935;28;20046;-84
2021/10/15 01:34:46;;;;;;;1.42;1.02;;;12.80;89.40;;;;;;5077993;28;20044;-83
2021/10/15 01:37:13;;;;;;;1.42;1.05;;;12.70;89.30;;;;;;5079632;28;20516;-84
2021/10/15 01:39:38;;;;;;;0.90;0.75;;;12.70;89.30;;;;;;5081019;28;20457;-84
2021/10/15 01:42:06;;;;;;;1.20;0.90;;;12.80;89.40;;;;;;5082464;28;20035;-83
2021/10/15 01:44:32;;;;;;;2.53;1.10;;;12.80;89.40;;;;;;5081334;28;20433;-84
2021/10/15 01:46:58;;;;;;;1.75;1.10;;;12.80;89.40;;;;;;5081291;28;20054;-83
2021/10/15 01:49:23;;;;;;;1.85;1.10;;;12.70;89.30;;;;;;5100361;28;20096;-83
2021/10/15 01:51:49;;;;;;;1.38;1.10;;;12.70;89.30;;;;;;5084134;28;20040;-83
2021/10/15 01:54:15;;;;;;;2.05;1.20;;;12.70;89.20;;;;;;5098879;28;20116;-85
2021/10/15 01:56:41;;;;;;;1.70;1.20;;;12.70;89.20;;;;;;5116824;28;20036;-85
2021/10/15 01:59:07;;;;;;;1.58;1.00;;;12.80;89.30;;;;;;5116543;28;20418;-85
2021/10/15 02:01:33;;;;;;;1.63;0.93;;;12.70;89.20;;;;;;5081114;28;20400;-82
2021/10/15 02:03:59;;;;;;;2.50;1.00;;;12.60;89.20;;;;;;5098101;28;20055;-84
2021/10/15 02:06:25;;;;;;;1.90;1.40;;;12.70;89.30;;;;;;5097626;28;20214;-82
2021/10/15 02:08:51;;;;;;;1.67;1.00;;;12.80;89.30;;;;;;5080734;28;20377;-82
2021/10/15 02:11:17;;;;;;;1.90;1.23;;;12.70;89.20;;;;;;5082170;28;20076;-82
2021/10/15 02:13:43;;;;;;;1.92;1.30;;;12.80;89.20;;;;;;5101180;28;20400;-86
2021/10/15 02:16:09;;;;;;;1.98;1.23;;;12.80;89.20;;;;;;5080858;28;20043;-85
2021/10/15 02:18:35;;;;;;;2.50;1.15;;;12.80;89.20;;;;;;5097667;28;20043;-81
2021/10/15 02:21:01;;;;;;;2.00;1.45;;;12.70;89.20;;;;;;5098383;28;20040;-83
2021/10/15 02:23:27;;;;;;;2.05;1.30;;;12.80;89.30;;;;;;5117719;28;20040;-83
2021/10/15 02:25:53;;;;;;;1.60;1.27;;;12.80;89.30;;;;;;5097871;28;20039;-82
2021/10/15 02:28:18;;;;;;;1.63;1.20;;;12.80;89.30;;;;;;5098695;28;20489;-86
2021/10/15 02:30:44;;;;;;;1.58;1.20;;;12.80;89.30;;;;;;5063874;28;20040;-86
2021/10/15 02:33:11;;;;;;;1.42;1.08;;;12.80;89.40;;;;;;5080455;28;20134;-84
2021/10/15 02:35:37;;;;;;;2.10;1.30;;;12.70;89.30;;;;;;5097436;28;20043;-85
2021/10/15 02:38:03;;;;;;;2.15;1.27;;;12.80;89.40;;;;;;5080431;28;20388;-82
2021/10/15 02:40:30;;;;;;;2.40;1.10;;;12.70;89.40;;;;;;5115363;28;20036;-85
2021/10/15 02:42:56;;;;;;;1.52;1.20;;;12.70;89.40;;;;;;5079964;28;20039;-84
2021/10/15 02:45:23;;;;;;;1.08;0.95;;;12.70;89.40;;;;;;5080074;28;20051;-85
2021/10/15 02:47:49;;;;;;;1.73;1.25;;;12.70;89.50;;;;;;5079587;28;20044;-84
2021/10/15 02:50:14;;;;;;;2.08;1.10;;;12.80;89.60;;;;;;5115345;28;20058;-85
2021/10/15 02:52:40;;;;;;;1.70;1.20;;;12.70;89.60;;;;;;5079992;28;20067;-85
2021/10/15 02:55:07;;;;;;;1.52;1.27;;;12.70;89.60;;;;;;5080011;28;20051;-85
2021/10/15 02:57:33;;;;;;;1.35;0.93;;;12.60;89.60;;;;;;5079929;28;20040;-83
2021/10/15 02:59:59;;;;;;;1.67;1.20;;;12.60;89.60;;;;;;5062943;28;20496;-85
2021/10/15 03:02:25;;;;;;;1.65;0.98;;;12.70;89.70;;;;;;5080116;28;20082;-81
2021/10/15 03:04:51;;;;;;;1.65;1.00;;;12.70;89.80;;;;;;5097703;28;20051;-84
2021/10/15 03:07:17;;;;;;;1.33;1.00;;;12.70;89.80;;;;;;5062746;28;20455;-85
2021/10/15 03:09:42;;;;;;;2.58;1.08;;;12.60;89.80;;;;;;5080237;28;20442;-84
2021/10/15 03:12:08;;;;;;;1.35;1.20;;;12.80;89.90;;;;;;5099961;28;20122;-85
2021/10/15 03:14:34;;;;;;;3.80;1.45;;;12.60;89.70;;;;;;5097522;28;20092;-84
2021/10/15 03:17:01;;;;;;;2.05;1.40;;;12.60;89.80;;;;;;5099436;28;20040;-83
2021/10/15 03:19:26;;;;;;;2.13;1.45;;;12.60;89.70;;;;;;5119829;28;20042;-85
2021/10/15 03:21:52;;;;;;;2.08;1.35;;;12.60;89.70;;;;;;5115048;28;20039;-86
2021/10/15 03:24:18;;;;;;;1.50;1.23;;;12.60;89.80;;;;;;5080284;28;20078;-83
2021/10/15 03:26:44;;;;;;;2.65;1.60;;;12.60;89.80;;;;;;5080492;28;20568;-84
2021/10/15 03:29:09;;;;;;;2.60;1.40;;;12.60;89.80;;;;;;5080012;28;20081;-84
2021/10/15 03:31:35;;;;;;;2.33;1.60;;;12.60;90.10;;;;;;5116218;28;20098;-85
2021/10/15 03:34:01;;;;;;;3.00;1.60;;;12.60;89.80;;;;;;5079518;28;20075;-84
2021/10/15 03:36:28;;;;;;;2.88;1.70;;;12.50;89.70;;;;;;5115032;28;20042;-85
2021/10/15 03:38:54;;;;;;;1.58;1.20;;;12.60;89.80;;;;;;5080696;28;20032;-85
2021/10/15 03:41:19;;;;;;;2.45;1.50;;;12.60;89.80;;;;;;5079238;28;20058;-85
2021/10/15 03:43:45;;;;;;;1.63;1.20;;;12.60;89.80;;;;;;5079845;28;20548;-85
2021/10/15 03:46:11;;;;;;;2.33;1.33;;;12.60;89.80;;;;;;5079818;28;20040;-85
2021/10/15 03:48:37;;;;;;;2.63;1.60;;;12.60;89.80;;;;;;5097157;28;20036;-85
2021/10/15 03:51:03;;;;;;;2.05;1.35;;;12.50;90.10;;;;;;5096288;28;20039;-83
2021/10/15 03:53:28;;;;;;;1.70;1.30;;;12.60;89.80;;;;;;5079156;28;20044;-86
2021/10/15 03:55:54;;;;;;;1.85;1.33;;;12.60;89.80;;;;;;5079129;28;20138;-84
2021/10/15 03:58:20;;;;;;;1.95;1.40;;;12.60;89.90;;;;;;5113717;28;20077;-82
2021/10/15 04:00:45;;;;;;;2.33;1.50;;;12.60;89.90;;;;;;5078799;28;20039;-84
2021/10/15 04:03:11;;;;;;;2.50;1.40;;;12.60;89.90;;;;;;5079377;28;20550;-84
2021/10/15 04:05:37;;;;;;;2.08;1.40;;;12.60;89.90;;;;;;5100880;28;20643;-85
2021/10/15 04:08:03;;;;;;;2.40;1.40;;;12.50;89.80;;;;;;5082363;28;20047;-85
2021/10/15 04:10:29;;;;;;;1.75;1.15;;;12.60;89.90;;;;;;5095930;28;20130;-85
2021/10/15 04:12:54;;;;;;;1.90;1.25;;;12.50;89.80;;;;;;5078902;28;20433;-86
2021/10/15 04:15:20;;;;;;;1.77;1.08;;;12.60;89.90;;;;;;5095751;28;20135;-84
2021/10/15 04:17:46;;;;;;;2.50;1.30;;;12.60;89.90;;;;;;5078892;28;20388;-86
2021/10/15 04:20:12;;;;;;;2.42;1.20;;;12.60;89.90;;;;;;5079322;28;20044;-85
2021/10/15 04:22:38;;;;;;;2.05;1.20;;;12.60;89.90;;;;;;5062155;28;20035;-83
2021/10/15 04:25:05;;;;;;;3.03;1.52;;;12.60;89.90;;;;;;5114447;28;20060;-85
2021/10/15 04:27:31;;;;;;;2.05;1.38;;;12.60;90.00;;;;;;5078525;28;20071;-85
2021/10/15 04:29:56;;;;;;;1.70;1.38;;;12.60;89.90;;;;;;5080056;28;20047;-85
2021/10/15 04:32:22;;;;;;;1.92;1.27;;;12.70;90.00;;;;;;5079404;28;20405;-85
2021/10/15 04:34:48;;;;;;;2.35;1.52;;;12.60;89.90;;;;;;5095819;28;20040;-86
2021/10/15 04:37:14;;;;;;;1.65;1.13;;;12.60;90.00;;;;;;5078826;28;20040;-83
2021/10/15 04:39:39;;;;;;;2.88;1.50;;;12.60;90.00;;;;;;5078965;28;20032;-85
2021/10/15 04:42:05;;;;;;;3.38;1.35;;;12.60;90.00;;;;;;5061911;28;20178;-83
2021/10/15 04:44:31;;;;;;;2.22;1.30;;;12.60;90.00;;;;;;5096262;28;20101;-85
2021/10/15 04:46:56;;;;;;;1.63;1.13;;;12.70;90.00;;;;;;5079445;28;20039;-85
2021/10/15 04:49:22;;;;;;;2.22;1.30;;;12.70;90.00;;;;;;5095603;28;20043;-83
2021/10/15 04:51:48;;;;;;;2.03;1.30;;;12.70;89.90;;;;;;5096344;28;20439;-84
2021/10/15 04:54:14;;;;;;;2.25;1.35;;;12.70;89.90;;;;;;5080193;28;20481;-86
2021/10/15 04:56:39;;;;;;;2.33;1.40;;;12.70;89.90;;;;;;5079551;28;20042;-83
2021/10/15 04:59:05;;;;;;;2.08;1.40;;;12.70;89.90;;;;;;5113735;28;20539;-86
2021/10/15 05:01:31;;;;;;;2.08;1.10;;;12.70;89.90;;;;;;5095856;28;20042;-85
2021/10/15 05:03:56;;;;;;;2.95;1.50;;;12.70;90.20;;;;;;5096963;28;20035;-85
2021/10/15 05:06:22;;;;;;;2.80;1.52;;;12.70;90.00;;;;;;5081845;28;20043;-83
2021/10/15 05:11:31;;;;;;;2.58;1.50;;;12.70;90.00;;;;;;5084848;28;20523;-85
2021/10/15 05:13:57;;;;;;;2.28;1.38;;;12.80;90.00;;;;;;5117302;28;20044;-88
2021/10/15 05:16:23;;;;;;;1.95;1.35;;;12.70;89.90;;;;;;5063758;28;20471;-85
2021/10/15 05:18:49;;;;;;;2.30;1.40;;;12.70;90.00;;;;;;5078962;28;20039;-86
2021/10/15 05:21:16;;;;;;;2.58;1.20;;;12.70;90.00;;;;;;5097024;28;20074;-84
2021/10/15 05:23:42;;;;;;;2.80;1.77;;;12.80;90.00;;;;;;5096641;28;20048;-83
2021/10/15 05:26:08;;;;;;;2.78;1.70;;;12.80;90.00;;;;;;5119577;28;20051;-85
2021/10/15 05:28:33;;;;;;;3.22;1.77;;;12.70;90.00;;;;;;5064546;28;20059;-84
2021/10/15 05:30:59;;;;;;;2.70;1.42;;;12.80;90.00;;;;;;5095305;28;20088;-83
2021/10/15 05:33:25;;;;;;;4.60;1.90;;;12.80;90.00;;;;;;5096345;28;20096;-84
2021/10/15 05:35:51;;;;;;;2.88;1.70;;;12.60;90.00;;;;;;5096096;28;20114;-85
2021/10/15 05:38:17;;;;;;;2.58;1.58;;;12.70;90.00;;;;;;5081242;28;20032;-85
2021/10/15 05:40:42;;;;;;;2.95;1.80;;;12.80;90.10;;;;;;5081170;28;20087;-82
2021/10/15 05:43:08;;;;;;;2.50;1.40;;;12.70;90.00;;;;;;5083304;28;20062;-83
2021/10/15 05:45:34;;;;;;;2.45;1.60;;;12.80;90.10;;;;;;5096776;28;20456;-84
2021/10/15 05:48:00;;;;;;;2.85;1.60;;;12.70;90.10;;;;;;5064341;28;20477;-84
2021/10/15 05:50:28;;;;;;;2.42;1.58;;;12.70;90.10;;;;;;5065264;28;20071;-84
2021/10/15 05:52:54;;;;;;;3.33;1.80;;;12.70;90.10;;;;;;5100175;28;20063;-85
2021/10/15 06:00:44;;;;;;;2.25;1.52;;;12.70;90.10;;;;;;5100273;28;20273;-82
2021/10/15 06:03:09;;;;;;;2.53;1.40;;;12.70;90.20;;;;;;5116632;28;20027;-84
2021/10/15 06:07:39;;;;;;;2.00;1.30;;;12.70;90.20;;;;;;5100164;28;20043;-83
2021/10/15 06:16:25;;;;;;;3.40;1.42;;;12.80;90.20;;;;;;5100298;28;20085;-82
2021/10/15 06:18:54;;;;;;;3.35;1.80;;;12.70;90.20;;;;;;5079554;28;20036;-83
2021/10/15 06:21:20;;;;;;;3.83;2.13;;;12.70;90.20;;;;;;5094751;28;20068;-83
2021/10/15 06:23:45;;;;;;;3.08;1.83;;;12.70;90.20;;;;;;5081196;28;20042;-85
2021/10/15 06:26:11;;;;;;;2.53;1.52;;;12.80;90.20;;;;;;5082285;28;20043;-84
2021/10/15 06:28:37;;;;;;;3.42;1.90;;;12.70;90.20;;;;;;5098346;28;20531;-86
2021/10/15 06:31:03;;;;;;;3.22;1.58;;;12.70;90.20;;;;;;5082177;28;20051;-82
2021/10/15 06:33:28;;;;;;;3.75;1.95;;;12.70;90.20;;;;;;5116627;28;20066;-83
2021/10/15 06:35:54;;;;;;;3.05;1.88;;;12.80;90.20;;;;;;5101220;28;20525;-85
2021/10/15 06:38:20;;;;;;;2.78;1.75;;;12.80;90.20;;;;;;5102844;28;20042;-84
2021/10/15 06:40:49;;;;;;;3.40;1.58;;;12.80;90.20;;;;;;5081235;28;20050;-84
2021/10/15 06:43:15;;;;;;;2.90;1.90;;;12.80;90.20;;;;;;5080864;28;20042;-84
2021/10/15 06:45:41;;;;;;;3.45;1.65;;;12.80;90.50;;;;;;5065303;28;20036;-84
2021/10/15 06:48:07;;;;;;;3.05;1.83;;;12.80;90.20;;;;;;5106299;28;20027;-84
2021/10/15 06:50:34;;;;;;;2.53;1.75;;;12.80;90.20;;;;;;5069587;28;20051;-85
2021/10/15 06:52:59;;;;;;;3.53;1.80;;;12.80;90.20;;;;;;5065031;28;20036;-79
2021/10/15 06:55:25;;;;;;;3.08;1.80;;;12.80;90.30;;;;;;5080727;28;20454;-84
2021/10/15 06:57:51;;;;;;;2.38;1.70;;;12.80;90.30;;;;;;5064314;28;20039;-84
2021/10/15 07:00:18;;;;;;;1.98;1.58;;;12.80;90.40;;;;;;5079980;28;20058;-83
2021/10/15 07:02:44;;;;;;;3.17;1.50;;;12.80;90.50;;;;;;5080121;28;20543;-77
2021/10/15 07:05:11;;;;;;;2.90;1.77;;;12.80;90.50;;;;;;5079806;28;20428;-77
2021/10/15 07:07:37;;;;;;;2.22;1.55;;;12.70;90.50;;;;;;5080720;28;20028;-81
2021/10/15 07:10:04;;;;;;;3.30;1.60;;;12.70;90.50;;;;;;5098270;28;20122;-85
2021/10/15 07:12:38;;;;;;;3.80;1.50;;;12.70;90.60;;;;;;5097840;28;20097;-90
2021/10/15 07:15:05;;;;;;;2.50;1.50;;;12.80;90.70;;;;;;5096547;28;20075;-79
2021/10/15 07:17:31;;;;;;;1.73;1.30;;;12.70;90.60;;;;;;5079650;28;20063;-81
2021/10/15 07:19:57;;;;;;;1.40;1.08;;;12.70;90.70;;;;;;5079747;28;20082;-83
2021/10/15 07:22:23;;;;;;;1.52;1.08;;;12.70;90.70;;;;;;5097177;28;20393;-83
2021/10/15 07:24:48;;;;;;;0.60;0.60;;;12.70;90.70;;;;;;5080133;28;20039;-86
2021/10/15 07:27:14;;;;;;;1.30;0.90;;;12.60;90.80;;;;;;5096839;28;20063;-86
2021/10/15 07:29:41;;;;;;;0.57;0.57;;;12.60;90.80;;;;;;5063657;28;20089;-86
2021/10/15 07:32:07;;;;;;;0.50;0.50;;;12.60;90.90;;;;;;5080113;28;20048;-86
2021/10/15 07:34:33;;;;;;;1.48;0.52;;;12.60;90.90;;;;;;5063439;28;20168;-87
2021/10/15 07:36:58;;;;;;;0.30;0.30;;;12.60;90.90;;;;;;5064129;28;20130;-88
2021/10/15 07:39:24;;;;;;;0.70;0.40;;;12.50;90.90;;;;;;5080121;28;20097;-87
2021/10/15 07:41:50;;;;;;;0.30;0.20;;;12.50;90.90;;;;;;5096830;28;20036;-88
2021/10/15 07:44:18;;;;;;;0.75;0.20;;;12.40;90.90;;;;;;5063510;28;20035;-86
2021/10/15 07:46:44;;;;;;;0.35;0.20;;;12.40;91.00;;;;;;5075387;28;20043;-88
2021/10/15 07:49:11;;;;;;;0.55;0.20;;;12.30;91.00;;;;;;5059144;28;20068;-86
2021/10/15 07:51:37;;;;;;;0.10;0.10;;;12.30;91.10;;;;;;5058655;28;20047;-87
2021/10/15 07:54:04;;;;;;;0.10;0.10;;;12.20;91.10;;;;;;5042083;28;20040;-87
2021/10/15 07:56:45;;;;;;;0.05;0.05;;;12.10;91.10;;;;;;5042419;28;20060;-87
2021/10/15 07:59:11;;;;;;;0.10;0.10;;;12.00;91.20;;;;;;5043435;28;20131;-86
2021/10/15 08:01:37;;;;;;;0.43;0.20;;;12.00;91.30;;;;;;5042073;28;20480;-87
2021/10/15 08:04:05;;;;;;;0.00;0.00;;;12.00;91.30;;;;;;5058837;28;20044;-87
2021/10/15 08:06:31;;;;;;;0.10;0.10;;;12.00;91.40;;;;;;5060513;28;20090;-87
2021/10/15 08:08:59;;;;;;;0.30;0.08;;;12.00;91.40;;;;;;5058753;28;20048;-87
2021/10/15 08:11:30;;;;;;;0.25;0.10;;;11.90;91.30;;;;;;5025214;28;20041;-87
2021/10/15 08:13:56;;;;;;;0.00;0.00;;;12.00;91.40;;;;;;5033793;28;20147;-87
2021/10/15 08:16:23;;;;;;;0.10;0.10;;;12.00;91.40;;;;;;5038031;28;20148;-87
2021/10/15 08:18:50;;;;;;;0.00;0.00;;;12.00;91.40;;;;;;5038374;28;20131;-87
2021/10/15 08:21:18;;;;;;;0.38;0.10;;;12.00;91.30;;;;;;5038424;28;20037;-87
2021/10/15 08:23:46;;;;;;;0.00;0.00;;;12.10;91.30;;;;;;5037275;28;20055;-87
2021/10/15 08:26:15;;;;;;;0.10;0.10;;;12.10;91.30;;;;;;5040262;28;20052;-87
2021/10/15 08:28:42;;;;;;;0.00;0.00;;;12.10;91.30;;;;;;5037511;28;20047;-88
2021/10/15 08:31:11;;;;;;;0.10;0.10;;;12.20;91.30;;;;;;5033901;28;20044;-89
2021/10/15 08:33:43;;;;;;;0.10;0.10;;;12.20;91.20;;;;;;4995844;28;20041;-88
2021/10/15 08:36:11;;;;;;;0.00;0.00;;;12.20;91.20;;;;;;4963239;28;20554;-88
2021/10/15 08:38:39;;;;;;;0.22;0.10;;;12.20;91.20;;;;;;4956707;28;20047;-88
2021/10/15 08:41:27;;;;;;;0.90;0.05;;;12.20;91.20;;;;;;4940485;28;20152;-88
2021/10/15 08:43:58;;;;;;;0.20;0.05;;;12.30;91.30;;;;;;4971644;28;20046;-88
2021/10/15 08:46:26;;;;;;;0.00;0.00;;;12.20;91.20;;;;;;4991841;28;20046;-88
2021/10/15 08:49:09;;;;;;;0.20;0.00;;;12.20;91.20;;;;;;4934529;29;20148;-88
2021/10/15 08:51:38;;;;;;;0.20;0.13;;;12.30;91.20;;;;;;4933853;29;20055;-88
2021/10/15 08:54:07;;;;;;;0.63;0.10;;;12.20;91.20;;;;;;4926807;29;20044;-88
2021/10/15 08:56:40;;;;;;;0.00;0.00;;;12.30;91.20;;;;;;4902509;29;20208;-88
2021/10/15 08:59:09;;;;;;;0.25;0.10;;;12.30;91.20;;;;;;4880967;29;20045;-87
2021/10/15 09:01:45;;;;;;;0.13;0.10;;;12.40;91.20;;;;;;4874749;29;20520;-87
2021/10/15 09:04:16;;;;;;;0.05;0.05;;;12.30;91.10;;;;;;4874757;29;20044;-86
2021/10/15 09:06:50;;;;;;;;;;;12.40;91.00;;;;;;4839989;29;20041;-89
2021/10/15 09:09:41;;;;;;;0.10;0.10;;;12.40;91.00;;;;;;4845119;29;19916;-87
2021/10/15 09:12:11;;;;;;;0.30;0.20;;;12.50;91.10;;;;;;4850259;29;20093;-88
2021/10/15 09:14:41;;;;;;;1.10;0.30;;;12.50;90.90;;;;;;4853634;29;20402;-87
2021/10/15 09:17:33;;;;;;;0.10;0.10;;;12.50;90.90;;;;;;4839553;29;20058;-88
2021/10/15 09:20:06;;;;;;;0.20;0.10;;;12.50;90.90;;;;;;4836291;29;20056;-89
2021/10/15 09:22:38;;;;;;;0.20;0.20;;;12.50;90.90;;;;;;4860535;29;20086;-89
2021/10/15 09:25:11;;;;;;;0.55;0.20;;;12.50;90.90;;;;;;4861527;29;20139;-89
2021/10/15 09:28:02;;;;;;;0.75;0.20;;;12.40;90.90;;;;;;4883198;29;20177;-88
2021/10/15 09:30:31;;;;;;;0.57;0.10;;;12.50;90.90;;;;;;4852982;29;20054;-88
2021/10/15 09:33:03;;;;;;;0.82;0.28;;;12.50;90.90;;;;;;4812500;29;20070;-88
2021/10/15 09:35:44;;;;;;;0.50;0.20;;;12.50;90.90;;;;;;4806914;29;20055;-89
2021/10/15 09:38:11;;;;;;;1.05;0.20;;;12.50;90.90;;;;;;4831434;29;20569;-82
2021/10/15 09:40:54;;;;;;;0.90;0.20;;;12.50;90.90;;;;;;4819090;29;20401;-84
2021/10/15 09:43:31;;;;;;;1.15;0.13;;;12.50;90.90;;;;;;4885868;29;20127;-80
2021/10/15 10:07:16;;;;;;;0.20;0.20;;;12.60;90.80;;;;;;4903305;29;20100;-84
2021/10/15 10:14:26;;;;;;;0.28;0.10;;;12.80;90.80;;;;;;4895754;29;20059;-85
2021/10/15 10:16:55;;;;;;;1.15;0.30;;;12.90;90.70;;;;;;4900354;29;20045;-80
2021/10/15 10:19:23;;;;;;;0.57;0.22;;;12.90;90.50;;;;;;4898687;29;20056;-79
2021/10/15 10:21:49;;;;;;;0.45;0.30;;;13.00;90.50;;;;;;4898045;29;20049;-83
2021/10/15 10:24:22;;;;;;;1.60;0.10;;;13.20;90.40;;;;;;4899870;29;20036;-79
2021/10/15 10:26:51;;;;;;;0.63;0.20;;;13.20;90.30;;;;;;4992849;28;20050;-78
2021/10/15 10:29:45;;;;;;;1.08;0.30;;;13.20;90.30;;;;;;5027612;28;20389;-86
2021/10/15 10:48:15;;;;;;;0.73;0.10;;;13.10;90.40;;;;;;5091749;28;20050;-85
2021/10/15 10:55:07;;;;;;;0.57;0.10;;;13.20;90.30;;;;;;4934257;29;20019;-91
2021/10/15 10:57:57;;;;;;;1.85;0.40;;;13.30;90.20;;;;;;4935556;29;20043;-90
2021/10/15 11:00:30;;;;;;;0.20;0.20;;;13.30;90.00;;;;;;4923215;29;20051;-82
2021/10/15 11:02:58;;;;;;;0.25;0.15;;;13.40;90.00;;;;;;4935073;29;20106;-81
2021/10/15 11:05:35;;;;;;;0.50;0.20;;;13.60;89.90;;;;;;4936041;29;20047;-81
2021/10/15 11:08:28;;;;;;;0.60;0.30;;;13.50;89.70;;;;;;4934973;29;20138;-84
2021/10/15 11:11:33;;;;;;;1.40;0.30;;;13.50;89.50;;;;;;4921565;29;20050;-83
2021/10/15 11:13:59;;;;;;;1.00;0.35;;;13.50;89.30;;;;;;4927257;29;20043;-82
2021/10/15 11:16:27;;;;;;;2.20;0.70;;;13.60;89.20;;;;;;4976391;28;20142;-82
2021/10/15 11:18:54;;;;;;;0.40;0.30;;;13.50;89.10;;;;;;4960657;28;20051;-78
2021/10/15 11:21:20;;;;;;;0.63;0.20;;;13.70;89.00;;;;;;4983756;28;20034;-81
2021/10/15 11:23:47;;;;;;;1.35;0.43;;;13.70;88.70;;;;;;5019651;28;20096;-82
2021/10/15 11:26:14;;;;;;;1.13;0.40;;;13.80;88.30;;;;;;5122783;28;20071;-81
2021/10/15 11:28:51;;;;;;;0.10;0.10;;;14.00;88.20;;;;;;5120322;28;20035;-83
2021/10/15 11:31:23;;;;;;;2.80;0.30;;;14.00;88.00;;;;;;5074318;28;20033;-86
2021/10/15 11:33:48;;;;;;;;;;;14.10;87.70;;;;;;5062728;28;20028;-82
2021/10/15 11:36:20;;;;;;;0.30;0.20;;;14.10;87.60;;;;;;5057616;28;20530;-83
2021/10/15 11:38:48;;;;;;;0.57;0.22;;;14.10;87.60;;;;;;5060376;28;20048;-84
2021/10/15 11:44:48;;;;;;;1.55;0.17;;;13.80;87.70;;;;;;4989676;28;20070;-82
2021/10/15 11:54:47;;;;;;;1.30;0.32;;;14.00;87.60;;;;;;4858521;29;20057;-83
2021/10/15 11:57:54;;;;;;;0.85;0.30;;;13.90;87.40;;;;;;4813515;29;20052;-82
2021/10/15 12:11:49;;;;;;;1.15;0.25;;;13.40;88.00;;;;;;4725581;30;20103;-81
2021/10/15 12:52:04;;;;;;;0.85;0.30;;;13.60;86.30;;;;;;4784783;29;20469;-82
2021/10/15 12:54:50;;;;;;;2.10;0.30;;;13.50;86.40;;;;;;4867923;29;20088;-80
2021/10/15 13:01:43;;;;;;;2.03;0.47;;;13.70;85.90;;;;;;4951383;28;20071;-86
2021/10/15 13:04:08;;;;;;;1.27;0.32;;;13.80;85.50;;;;;;4988261;28;20061;-81
2021/10/15 13:06:54;;;;;;;0.25;0.20;;;13.90;85.40;;;;;;4991206;28;20046;-85
2021/10/15 13:09:19;;;;;;;1.92;0.30;;;13.90;85.10;;;;;;4992092;28;20193;-81
2021/10/15 13:11:45;;;;;;;1.63;0.40;;;14.00;84.90;;;;;;4993537;28;20091;-84
2021/10/15 13:14:12;;;;;;;2.33;0.60;;;14.10;84.70;;;;;;4975981;28;20503;-84
2021/10/15 13:16:42;;;;;;;0.75;0.30;;;14.00;84.40;;;;;;4976397;28;20144;-86
2021/10/15 13:42:46;;;;;;;2.47;0.40;;;14.20;83.10;;;;;;4929414;29;20040;-87
2021/10/15 13:54:03;;;;;;;1.67;0.57;;;14.20;82.50;;;;;;4929441;28;20972;-77
2021/10/15 13:56:31;;;;;;;1.33;0.47;;;14.10;82.50;;;;;;4948445;28;20075;-82
2021/10/15 13:59:41;;;;;;;1.52;0.45;;;14.10;82.40;;;;;;4968515;28;20598;-81
2021/10/15 14:02:36;;;;;;;1.25;0.30;;;14.00;82.30;;;;;;4983537;28;20081;-79
2021/10/15 14:05:03;;;;;;;3.08;0.40;;;14.00;82.30;;;;;;4929749;29;20079;-78
2021/10/15 14:07:29;;;;;;;3.72;0.40;;;13.90;82.10;;;;;;4935979;29;20047;-78
2021/10/15 14:09:54;;;;;;;2.28;0.70;;;13.90;82.00;;;;;;4936348;29;20039;-76
2021/10/15 14:12:21;;;;;;;1.02;0.30;;;13.90;81.80;;;;;;4984818;28;20038;-77
2021/10/15 14:14:49;;;;;;;1.17;0.40;;;13.90;81.80;;;;;;4993647;28;20061;-76
2021/10/15 14:17:15;;;;;;;1.13;0.35;;;13.80;81.70;;;;;;4994010;28;20488;-76
2021/10/15 14:19:43;;;;;;;0.47;0.30;;;13.80;81.70;;;;;;4993652;28;20049;-81
2021/10/15 14:22:27;;;;;;;1.58;0.40;;;13.70;81.50;;;;;;4978766;28;20113;-83
2021/10/15 14:25:01;;;;;;;2.00;0.30;;;13.70;81.60;;;;;;5001717;28;20050;-80
2021/10/15 14:27:58;;;;;;;1.60;0.32;;;13.80;81.60;;;;;;4933077;29;20078;-82
2021/10/15 14:34:30;;;;;;;1.88;0.35;;;13.70;81.20;;;;;;4897051;29;20051;-79
2021/10/15 14:36:55;;;;;;;1.50;0.43;;;13.60;81.20;;;;;;4938647;29;20047;-80
2021/10/15 14:39:21;;;;;;;0.77;0.30;;;13.60;81.30;;;;;;4938856;29;20112;-80
2021/10/15 14:41:47;;;;;;;0.32;0.20;;;13.60;81.20;;;;;;4935815;29;20493;-81
2021/10/15 14:44:14;;;;;;;1.08;0.40;;;13.60;81.20;;;;;;4918859;29;20039;-81
2021/10/15 14:46:40;;;;;;;0.50;0.25;;;13.50;81.00;;;;;;4936233;29;20099;-80
2021/10/15 14:49:06;;;;;;;2.67;0.43;;;13.50;80.80;;;;;;4925540;29;20044;-78
2021/10/15 14:51:32;;;;;;;1.25;0.40;;;13.50;80.80;;;;;;4919367;29;20135;-79
2021/10/15 14:53:59;;;;;;;0.98;0.40;;;13.50;80.70;;;;;;4935110;29;20043;-79
2021/10/15 14:56:39;;;;;;;2.03;0.47;;;13.40;80.50;;;;;;4906164;29;20177;-80
2021/10/15 14:59:11;;;;;;;4.37;0.40;;;13.50;80.60;;;;;;4928719;28;20042;-80
2021/10/15 15:01:37;;;;;;;1.42;0.40;;;13.40;80.60;;;;;;4941505;28;20807;-81
2021/10/15 15:04:02;;;;;;;2.20;0.50;;;13.40;80.70;;;;;;4990878;28;20040;-81
2021/10/15 15:06:57;;;;;;;1.73;0.65;;;13.50;80.80;;;;;;4999117;28;20415;-80
2021/10/15 15:09:27;;;;;;;2.53;0.30;;;13.40;80.70;;;;;;5003122;28;20052;-78
2021/10/15 15:11:56;;;;;;;1.00;0.40;;;13.30;80.70;;;;;;5002152;28;20052;-77
2021/10/15 15:14:28;;;;;;;1.42;0.40;;;13.30;80.60;;;;;;5018801;28;20087;-78
2021/10/15 15:16:57;;;;;;;0.85;0.20;;;13.30;80.60;;;;;;5015098;28;20057;-78
2021/10/15 15:19:22;;;;;;;0.85;0.20;;;13.20;80.60;;;;;;5016531;28;20038;-79
2021/10/15 15:21:49;;;;;;;0.65;0.20;;;13.20;80.60;;;;;;5032095;28;20051;-79
2021/10/15 15:24:15;;;;;;;0.98;0.30;;;13.20;80.60;;;;;;5034477;28;20155;-82
2021/10/15 15:27:53;;;;;;;1.52;0.40;;;13.10;80.60;;;;;;5016166;28;20137;-82
2021/10/15 15:33:54;;;;;;;0.73;0.28;;;13.00;80.60;;;;;;4914274;29;20043;-80
2021/10/15 15:36:40;;;;;;;0.20;0.20;;;13.00;80.70;;;;;;4911028;29;20147;-81
2021/10/15 15:39:50;;;;;;;0.20;0.20;;;12.90;80.60;;;;;;4916529;29;20131;-81
2021/10/15 15:42:16;;;;;;;0.52;0.20;;;12.90;80.60;;;;;;4860275;29;20140;-79
2021/10/15 15:44:44;;;;;;;0.90;0.25;;;12.80;80.50;;;;;;4845123;29;20105;-79